Time;durP1;ratioP1;P1;durP2;ratioP2;P2;SDS_P1;SDS_P2;PMS_P1;PMS_P2;Temp;Humidity;BMP_temperature;BMP_pressure;BME280_temperature;BME280_humidity;BME280_pressure;Samples;Min_cycle;Max_cycle;Signal;HPM_P1;HPM_P2
2023/05/22 00:01:00;;;;;;;37.53;23.10;;;;;;;;;;5090987;27;20083;-65
2023/05/22 00:03:27;;;;;;;31.10;23.20;;;;;;;;;;5130645;27;20215;-65
2023/05/22 00:05:57;;;;;;;33.17;24.90;;;;;;;;;;5093987;28;20086;-64
2023/05/22 00:08:24;;;;;;;31.92;22.67;;;;;;;;;;5094476;28;20067;-65
2023/05/22 00:10:51;;;;;;;33.65;23.15;;;;;;;;;;5091294;28;20394;-65
2023/05/22 00:13:17;;;;;;;31.17;22.13;;;;;;;;;;5090046;27;20055;-65
2023/05/22 00:15:43;;;;;;;35.75;23.05;;;;;;;;;;5089524;28;20161;-65
2023/05/22 00:18:09;;;;;;;39.88;24.35;;;;;;;;;;5107829;27;20077;-64
2023/05/22 00:20:37;;;;;;;28.25;22.30;;;;;;;;;;5086976;28;20036;-65
2023/05/22 00:23:08;;;;;;;33.70;24.17;;;;;;;;;;5095753;28;20090;-65
2023/05/22 00:25:34;;;;;;;33.70;23.42;;;;;;;;;;5070716;28;20093;-64
2023/05/22 00:28:01;;;;;;;33.45;22.98;;;;;;;;;;5104983;27;20060;-65
2023/05/22 00:30:27;;;;;;;32.60;24.20;;;;;;;;;;5089300;28;20042;-65
2023/05/22 00:32:53;;;;;;;34.17;23.83;;;;;;;;;;5094023;28;20158;-65
2023/05/22 00:35:19;;;;;;;34.65;24.25;;;;;;;;;;5088069;28;20071;-65
2023/05/22 00:37:45;;;;;;;30.75;24.15;;;;;;;;;;5125229;27;20047;-65
2023/05/22 00:40:12;;;;;;;31.50;23.52;;;;;;;;;;5086407;28;20127;-65
2023/05/22 00:42:38;;;;;;;31.27;23.15;;;;;;;;;;5086003;28;20048;-65
2023/05/22 00:45:06;;;;;;;30.02;23.55;;;;;;;;;;5091672;28;20040;-65
2023/05/22 00:47:32;;;;;;;31.60;22.77;;;;;;;;;;5099176;28;20475;-65
2023/05/22 00:49:58;;;;;;;30.00;22.30;;;;;;;;;;5096539;28;20067;-65
2023/05/22 00:52:25;;;;;;;30.83;22.42;;;;;;;;;;5094596;28;20064;-65
2023/05/22 00:54:53;;;;;;;32.38;25.35;;;;;;;;;;5096960;28;20088;-65
2023/05/22 00:57:20;;;;;;;34.28;23.65;;;;;;;;;;5094399;28;20070;-65
2023/05/22 00:59:48;;;;;;;32.38;23.67;;;;;;;;;;5098178;28;20040;-65
2023/05/22 01:02:15;;;;;;;34.05;24.90;;;;;;;;;;5093370;28;20047;-65
2023/05/22 01:04:47;;;;;;;31.65;23.55;;;;;;;;;;5097648;28;20507;-65
2023/05/22 01:07:15;;;;;;;32.33;24.98;;;;;;;;;;5094573;28;20394;-65
2023/05/22 01:09:41;;;;;;;33.85;23.60;;;;;;;;;;5101906;27;20071;-65
2023/05/22 01:12:28;;;;;;;35.83;25.58;;;;;;;;;;5101652;27;20142;-65
2023/05/22 01:15:03;;;;;;;36.15;25.33;;;;;;;;;;5102852;27;22380;-65
2023/05/22 01:17:39;;;;;;;36.85;25.73;;;;;;;;;;5100884;27;20055;-65
2023/05/22 01:20:07;;;;;;;31.58;25.23;;;;;;;;;;5103686;27;20039;-65
2023/05/22 01:22:48;;;;;;;32.95;24.13;;;;;;;;;;5100343;27;20171;-65
2023/05/22 01:25:25;;;;;;;33.63;25.58;;;;;;;;;;5097575;27;20047;-66
2023/05/22 01:28:02;;;;;;;36.45;26.95;;;;;;;;;;5100498;27;20059;-65
2023/05/22 01:30:38;;;;;;;39.40;28.35;;;;;;;;;;5103214;27;20638;-64
2023/05/22 01:33:06;;;;;;;34.70;27.63;;;;;;;;;;5097870;27;20047;-64
2023/05/22 01:35:33;;;;;;;37.65;28.92;;;;;;;;;;5098419;27;20178;-64
2023/05/22 01:38:00;;;;;;;40.20;30.50;;;;;;;;;;5096118;27;20151;-64
2023/05/22 01:40:26;;;;;;;48.05;31.23;;;;;;;;;;5098771;27;20416;-65
2023/05/22 01:42:52;;;;;;;41.13;29.30;;;;;;;;;;5101878;27;20130;-64
2023/05/22 01:45:20;;;;;;;45.25;31.75;;;;;;;;;;5097885;27;20092;-64
2023/05/22 01:47:47;;;;;;;41.67;32.42;;;;;;;;;;5102544;27;20047;-64
2023/05/22 01:50:14;;;;;;;38.60;29.38;;;;;;;;;;5132298;27;20036;-64
2023/05/22 01:52:44;;;;;;;41.05;28.95;;;;;;;;;;5098553;27;20052;-64
2023/05/22 01:55:12;;;;;;;37.00;29.52;;;;;;;;;;5095472;27;20059;-64
2023/05/22 01:57:56;;;;;;;41.88;31.17;;;;;;;;;;5092043;28;20069;-64
2023/05/22 02:00:23;;;;;;;38.28;30.70;;;;;;;;;;5092926;27;20055;-64
2023/05/22 02:02:53;;;;;;;40.03;30.35;;;;;;;;;;5095911;27;20454;-65
2023/05/22 02:05:21;;;;;;;44.00;32.13;;;;;;;;;;5095153;27;20035;-64
2023/05/22 02:07:47;;;;;;;37.15;30.05;;;;;;;;;;5097345;27;20085;-64
2023/05/22 02:10:15;;;;;;;42.53;31.10;;;;;;;;;;5093025;27;20438;-64
2023/05/22 02:12:41;;;;;;;41.97;30.85;;;;;;;;;;5091556;27;20044;-65
2023/05/22 02:15:08;;;;;;;45.10;32.00;;;;;;;;;;5094998;27;20513;-64
2023/05/22 02:17:39;;;;;;;43.20;30.23;;;;;;;;;;5097699;27;20083;-64
2023/05/22 02:20:12;;;;;;;42.00;30.25;;;;;;;;;;5125565;27;20079;-64
2023/05/22 02:22:40;;;;;;;38.75;29.05;;;;;;;;;;5090749;27;20126;-64
2023/05/22 02:25:08;;;;;;;38.97;29.63;;;;;;;;;;5101622;27;20055;-64
2023/05/22 02:27:34;;;;;;;38.08;30.88;;;;;;;;;;5085757;27;20055;-64
2023/05/22 02:30:00;;;;;;;41.13;31.15;;;;;;;;;;5090348;27;20046;-64
2023/05/22 02:32:27;;;;;;;41.42;30.35;;;;;;;;;;5093373;27;20048;-64
2023/05/22 02:34:53;;;;;;;41.55;29.50;;;;;;;;;;5090840;27;20039;-64
2023/05/22 02:37:19;;;;;;;39.75;31.65;;;;;;;;;;5093213;27;20047;-64
2023/05/22 02:39:45;;;;;;;43.08;31.33;;;;;;;;;;5094466;27;20071;-64
2023/05/22 02:42:11;;;;;;;41.22;29.10;;;;;;;;;;5092291;27;20044;-64
2023/05/22 02:44:38;;;;;;;38.53;30.92;;;;;;;;;;5092279;27;20048;-64
2023/05/22 02:47:04;;;;;;;42.22;30.88;;;;;;;;;;5095620;27;20131;-64
2023/05/22 02:49:30;;;;;;;41.65;32.08;;;;;;;;;;5091214;27;20059;-64
2023/05/22 02:51:56;;;;;;;39.50;31.65;;;;;;;;;;5090698;28;20057;-64
2023/05/22 02:54:22;;;;;;;44.08;30.48;;;;;;;;;;5093964;27;20688;-64
2023/05/22 02:56:48;;;;;;;41.90;32.63;;;;;;;;;;5096723;27;20402;-64
2023/05/22 02:59:15;;;;;;;45.63;32.95;;;;;;;;;;5120646;27;20127;-64
2023/05/22 03:01:43;;;;;;;45.17;33.83;;;;;;;;;;5101841;27;20164;-64
2023/05/22 03:04:11;;;;;;;47.40;32.53;;;;;;;;;;5096305;27;20604;-64
2023/05/22 03:06:37;;;;;;;40.08;29.83;;;;;;;;;;5092485;27;20079;-64
2023/05/22 03:09:03;;;;;;;44.45;29.50;;;;;;;;;;5092409;27;20542;-64
2023/05/22 03:11:30;;;;;;;44.42;32.50;;;;;;;;;;5090001;27;20063;-64
2023/05/22 03:13:56;;;;;;;49.20;32.20;;;;;;;;;;5090722;27;20758;-64
2023/05/22 03:16:23;;;;;;;44.78;31.60;;;;;;;;;;5110662;27;20048;-64
2023/05/22 03:18:50;;;;;;;40.88;30.25;;;;;;;;;;5096417;27;20046;-64
2023/05/22 03:21:16;;;;;;;42.53;31.00;;;;;;;;;;5093148;27;20511;-64
2023/05/22 03:23:44;;;;;;;49.08;32.28;;;;;;;;;;5092886;27;20050;-64
2023/05/22 03:26:10;;;;;;;45.67;33.17;;;;;;;;;;5091677;27;20048;-64
2023/05/22 03:28:36;;;;;;;43.50;30.75;;;;;;;;;;5093931;27;20046;-64
2023/05/22 03:31:03;;;;;;;45.65;29.80;;;;;;;;;;5087636;27;20047;-64
2023/05/22 03:33:29;;;;;;;45.67;30.25;;;;;;;;;;5092332;27;20040;-64
2023/05/22 03:35:56;;;;;;;42.80;29.50;;;;;;;;;;5079140;28;20044;-64
2023/05/22 03:38:22;;;;;;;47.53;30.65;;;;;;;;;;5096496;27;20032;-64
2023/05/22 03:40:48;;;;;;;44.90;30.08;;;;;;;;;;5090058;27;20044;-64
2023/05/22 03:43:14;;;;;;;45.63;30.10;;;;;;;;;;5089340;27;20046;-64
2023/05/22 03:45:40;;;;;;;44.95;28.98;;;;;;;;;;5097607;27;20483;-64
2023/05/22 03:48:09;;;;;;;47.35;31.08;;;;;;;;;;5094815;27;20039;-64
2023/05/22 03:50:35;;;;;;;48.25;30.55;;;;;;;;;;5092943;27;20040;-64
2023/05/22 03:53:01;;;;;;;43.30;31.27;;;;;;;;;;5091235;27;20100;-64
2023/05/22 03:55:29;;;;;;;39.95;28.52;;;;;;;;;;5088811;28;20035;-64
2023/05/22 03:57:56;;;;;;;42.35;30.60;;;;;;;;;;5094377;27;20914;-64
2023/05/22 04:00:22;;;;;;;44.75;31.67;;;;;;;;;;5087962;28;20059;-65
2023/05/22 04:02:49;;;;;;;45.42;32.40;;;;;;;;;;5097349;28;20062;-64
2023/05/22 04:05:15;;;;;;;49.00;31.00;;;;;;;;;;5096321;27;20467;-64
2023/05/22 04:07:41;;;;;;;46.75;31.98;;;;;;;;;;5091124;27;20048;-64
2023/05/22 04:10:08;;;;;;;48.88;33.90;;;;;;;;;;5089178;27;20526;-64
2023/05/22 04:12:34;;;;;;;44.03;32.80;;;;;;;;;;5087737;28;20043;-64
2023/05/22 04:15:00;;;;;;;46.33;32.97;;;;;;;;;;5091436;28;20086;-64
2023/05/22 04:17:32;;;;;;;48.40;33.33;;;;;;;;;;5093958;28;20084;-64
2023/05/22 04:19:59;;;;;;;46.67;33.95;;;;;;;;;;5091543;28;20131;-64
2023/05/22 04:22:26;;;;;;;53.00;32.95;;;;;;;;;;5096826;27;20047;-64
2023/05/22 04:24:52;;;;;;;45.55;30.27;;;;;;;;;;5096407;28;20059;-64
2023/05/22 04:27:21;;;;;;;46.72;33.50;;;;;;;;;;5093604;28;20059;-64
2023/05/22 04:29:49;;;;;;;46.85;32.55;;;;;;;;;;5092342;27;20083;-64
2023/05/22 04:32:17;;;;;;;47.03;32.42;;;;;;;;;;5097685;28;20048;-64
2023/05/22 04:34:46;;;;;;;51.80;34.97;;;;;;;;;;5099937;28;20044;-64
2023/05/22 04:37:13;;;;;;;47.03;33.75;;;;;;;;;;5101804;28;20422;-64
2023/05/22 04:39:40;;;;;;;46.83;33.15;;;;;;;;;;5090271;27;20052;-65
2023/05/22 04:42:07;;;;;;;47.47;34.15;;;;;;;;;;5089602;28;20164;-65
2023/05/22 04:44:34;;;;;;;42.72;31.98;;;;;;;;;;5097092;27;20596;-63
2023/05/22 04:47:01;;;;;;;44.17;32.33;;;;;;;;;;5096110;27;20069;-65
2023/05/22 04:49:27;;;;;;;40.83;29.52;;;;;;;;;;5095004;27;20075;-67
2023/05/22 04:51:54;;;;;;;39.45;28.60;;;;;;;;;;5076132;28;20055;-64
2023/05/22 04:54:21;;;;;;;36.70;24.13;;;;;;;;;;5104177;27;20482;-64
2023/05/22 04:56:47;;;;;;;34.30;19.80;;;;;;;;;;5101738;27;20382;-64
2023/05/22 04:59:15;;;;;;;32.22;16.85;;;;;;;;;;5103800;27;20036;-65
2023/05/22 05:01:44;;;;;;;25.35;15.90;;;;;;;;;;5100448;27;20053;-65
2023/05/22 05:04:10;;;;;;;33.35;16.48;;;;;;;;;;5101108;27;20544;-65
2023/05/22 05:06:37;;;;;;;33.80;16.77;;;;;;;;;;5103440;27;20076;-67
2023/05/22 05:09:04;;;;;;;23.60;14.68;;;;;;;;;;5103571;27;20046;-65
2023/05/22 05:11:30;;;;;;;25.92;13.85;;;;;;;;;;5105035;27;20446;-65
2023/05/22 05:13:56;;;;;;;23.92;14.43;;;;;;;;;;5102084;27;20409;-65
2023/05/22 05:16:23;;;;;;;21.95;12.55;;;;;;;;;;5103447;27;20367;-65
2023/05/22 05:18:50;;;;;;;30.35;12.43;;;;;;;;;;5101776;27;20070;-65
2023/05/22 05:21:17;;;;;;;21.48;11.48;;;;;;;;;;5101089;27;20052;-65
2023/05/22 05:23:43;;;;;;;20.77;10.80;;;;;;;;;;5101932;27;20104;-65
2023/05/22 05:26:09;;;;;;;23.88;11.73;;;;;;;;;;5100470;27;20044;-65
2023/05/22 05:28:35;;;;;;;28.23;11.38;;;;;;;;;;5101003;27;20056;-65
2023/05/22 05:31:01;;;;;;;22.25;11.50;;;;;;;;;;5100731;27;20056;-65
2023/05/22 05:33:28;;;;;;;22.20;11.05;;;;;;;;;;5103504;27;20035;-65
2023/05/22 05:35:54;;;;;;;21.17;10.95;;;;;;;;;;5101680;27;20213;-65
2023/05/22 05:38:20;;;;;;;24.60;11.52;;;;;;;;;;5119899;27;20621;-65
2023/05/22 05:40:46;;;;;;;22.48;11.13;;;;;;;;;;5103781;27;20458;-65
2023/05/22 05:43:14;;;;;;;24.98;10.52;;;;;;;;;;5103335;27;20065;-65
2023/05/22 05:45:40;;;;;;;20.80;9.90;;;;;;;;;;5102836;27;20479;-65
2023/05/22 05:48:07;;;;;;;19.27;10.27;;;;;;;;;;5138838;27;20437;-65
2023/05/22 05:50:33;;;;;;;27.85;11.50;;;;;;;;;;5101020;27;20031;-65
2023/05/22 05:53:00;;;;;;;20.00;9.70;;;;;;;;;;5100222;27;20493;-65
2023/05/22 05:55:26;;;;;;;21.45;9.57;;;;;;;;;;5100118;28;20032;-65
2023/05/22 05:57:53;;;;;;;18.58;9.85;;;;;;;;;;5112614;27;20498;-65
2023/05/22 06:00:21;;;;;;;22.55;8.90;;;;;;;;;;5102416;27;20039;-65
2023/05/22 06:02:47;;;;;;;20.95;10.13;;;;;;;;;;5086172;27;20420;-65
2023/05/22 06:05:16;;;;;;;24.30;9.45;;;;;;;;;;5082971;27;20570;-65
2023/05/22 06:07:42;;;;;;;24.15;10.57;;;;;;;;;;5100808;27;20506;-65
2023/05/22 06:10:09;;;;;;;16.45;9.10;;;;;;;;;;5102462;27;20041;-65
2023/05/22 06:12:36;;;;;;;19.90;9.77;;;;;;;;;;5101530;27;20071;-65
2023/05/22 06:15:04;;;;;;;16.10;8.63;;;;;;;;;;5100177;27;20039;-65
2023/05/22 06:17:30;;;;;;;20.15;10.48;;;;;;;;;;5102116;27;20035;-64
2023/05/22 06:19:56;;;;;;;23.50;9.95;;;;;;;;;;5099028;27;20036;-65
2023/05/22 06:22:24;;;;;;;20.30;10.82;;;;;;;;;;5104231;27;20169;-65
2023/05/22 06:24:53;;;;;;;17.90;9.60;;;;;;;;;;5102449;27;20047;-65
2023/05/22 06:27:21;;;;;;;16.17;9.20;;;;;;;;;;5100824;27;20062;-65
2023/05/22 06:29:48;;;;;;;18.48;10.23;;;;;;;;;;5101217;27;20510;-65
2023/05/22 06:32:14;;;;;;;21.00;10.20;;;;;;;;;;5101336;27;20043;-66
2023/05/22 06:34:40;;;;;;;21.52;11.63;;;;;;;;;;5101480;27;20051;-66
2023/05/22 06:37:06;;;;;;;20.50;10.32;;;;;;;;;;5101350;27;20092;-66
2023/05/22 06:39:32;;;;;;;19.15;10.25;;;;;;;;;;5099381;27;20101;-65
2023/05/22 06:41:59;;;;;;;23.20;11.68;;;;;;;;;;5104643;27;20042;-65
2023/05/22 06:44:25;;;;;;;24.00;11.25;;;;;;;;;;5106299;27;20049;-66
2023/05/22 06:46:51;;;;;;;21.77;11.50;;;;;;;;;;5108064;27;20051;-66
2023/05/22 06:49:18;;;;;;;21.42;11.68;;;;;;;;;;5103311;27;20039;-66
2023/05/22 06:51:45;;;;;;;25.65;12.55;;;;;;;;;;5101499;27;20043;-66
2023/05/22 06:54:12;;;;;;;21.67;10.43;;;;;;;;;;5101926;27;20039;-66
2023/05/22 06:56:39;;;;;;;20.00;11.23;;;;;;;;;;5105205;27;20054;-66
2023/05/22 06:59:05;;;;;;;24.88;11.77;;;;;;;;;;5102618;27;20067;-66
2023/05/22 07:01:32;;;;;;;23.05;11.50;;;;;;;;;;5101782;27;20143;-66
2023/05/22 07:04:00;;;;;;;21.50;10.82;;;;;;;;;;5104920;27;20059;-66
2023/05/22 07:06:26;;;;;;;25.55;10.90;;;;;;;;;;5103078;27;20063;-66
2023/05/22 07:08:53;;;;;;;20.70;11.15;;;;;;;;;;5102720;27;20082;-66
2023/05/22 07:11:19;;;;;;;20.75;10.30;;;;;;;;;;5104031;27;20032;-66
2023/05/22 07:13:45;;;;;;;19.92;10.48;;;;;;;;;;5102692;27;20043;-66
2023/05/22 07:16:12;;;;;;;20.20;9.65;;;;;;;;;;5103494;27;20062;-66
2023/05/22 07:18:39;;;;;;;17.42;9.73;;;;;;;;;;5115442;27;20046;-66
2023/05/22 07:21:05;;;;;;;18.92;10.10;;;;;;;;;;5108600;27;20520;-66
2023/05/22 07:23:31;;;;;;;22.00;10.63;;;;;;;;;;5104963;27;20040;-66
2023/05/22 07:25:57;;;;;;;15.27;8.68;;;;;;;;;;5105161;27;20043;-66
2023/05/22 07:28:23;;;;;;;21.33;9.85;;;;;;;;;;5103125;27;21248;-66
2023/05/22 07:30:50;;;;;;;22.63;9.38;;;;;;;;;;5101087;27;20060;-66
2023/05/22 07:33:16;;;;;;;18.95;9.27;;;;;;;;;;5101665;27;20087;-67
2023/05/22 07:35:44;;;;;;;21.23;10.00;;;;;;;;;;5106164;27;20039;-66
2023/05/22 07:38:10;;;;;;;19.63;10.15;;;;;;;;;;5104519;27;20036;-66
2023/05/22 07:40:36;;;;;;;20.98;9.50;;;;;;;;;;5100019;27;20040;-66
2023/05/22 07:43:02;;;;;;;21.40;9.23;;;;;;;;;;5105021;27;20039;-65
2023/05/22 07:45:29;;;;;;;24.73;9.23;;;;;;;;;;5101513;27;20050;-64
2023/05/22 07:47:57;;;;;;;20.73;9.88;;;;;;;;;;5103874;27;20371;-65
2023/05/22 07:50:25;;;;;;;17.02;8.55;;;;;;;;;;5101340;27;20073;-65
2023/05/22 07:52:51;;;;;;;20.55;8.68;;;;;;;;;;5103415;27;20043;-65
2023/05/22 07:55:18;;;;;;;15.80;7.53;;;;;;;;;;5101179;27;20694;-65
2023/05/22 07:57:44;;;;;;;16.88;8.23;;;;;;;;;;5102037;27;20164;-65
2023/05/22 08:00:12;;;;;;;16.15;7.90;;;;;;;;;;5105486;27;20039;-67
2023/05/22 08:02:38;;;;;;;15.50;7.20;;;;;;;;;;5119000;27;20354;-65
2023/05/22 08:05:04;;;;;;;14.52;6.75;;;;;;;;;;5099107;27;20048;-65
2023/05/22 08:07:32;;;;;;;15.88;6.35;;;;;;;;;;5104437;27;20058;-65
2023/05/22 08:09:58;;;;;;;11.05;5.13;;;;;;;;;;5136333;27;20043;-65
2023/05/22 08:12:24;;;;;;;13.25;5.60;;;;;;;;;;5101264;28;20055;-65
2023/05/22 08:14:51;;;;;;;8.45;5.05;;;;;;;;;;5101216;27;20097;-65
2023/05/22 08:17:17;;;;;;;11.05;5.63;;;;;;;;;;5106750;27;20051;-65
2023/05/22 08:19:43;;;;;;;10.93;5.30;;;;;;;;;;5101192;28;20036;-65
2023/05/22 08:22:09;;;;;;;12.48;4.85;;;;;;;;;;5102468;27;20078;-66
2023/05/22 08:24:35;;;;;;;15.77;5.97;;;;;;;;;;5103648;28;20118;-65
2023/05/22 08:27:02;;;;;;;11.45;5.55;;;;;;;;;;5102349;28;20039;-66
2023/05/22 08:29:29;;;;;;;8.75;4.93;;;;;;;;;;5082240;28;20049;-65
2023/05/22 08:31:56;;;;;;;13.45;5.90;;;;;;;;;;5103280;28;20112;-65
2023/05/22 08:34:23;;;;;;;11.25;4.75;;;;;;;;;;5099375;28;20044;-66
2023/05/22 08:36:49;;;;;;;10.50;5.28;;;;;;;;;;5095798;28;20055;-66
2023/05/22 08:39:17;;;;;;;11.68;5.60;;;;;;;;;;5098639;28;20048;-66
2023/05/22 08:41:44;;;;;;;10.68;4.90;;;;;;;;;;5102983;28;20403;-66
2023/05/22 08:44:12;;;;;;;12.40;5.32;;;;;;;;;;5100051;28;20043;-65
2023/05/22 08:46:40;;;;;;;12.32;4.55;;;;;;;;;;5101358;28;20071;-65
2023/05/22 08:49:08;;;;;;;10.05;4.75;;;;;;;;;;5104099;28;20410;-66
2023/05/22 08:51:37;;;;;;;12.60;5.15;;;;;;;;;;5099942;28;21578;-66
2023/05/22 08:54:06;;;;;;;8.95;3.90;;;;;;;;;;5098237;28;20048;-65
2023/05/22 08:56:32;;;;;;;9.38;4.78;;;;;;;;;;5101240;28;20067;-67
2023/05/22 08:59:00;;;;;;;7.88;4.13;;;;;;;;;;5094101;28;20040;-66
2023/05/22 09:01:28;;;;;;;9.15;4.70;;;;;;;;;;5104241;28;20551;-66
2023/05/22 09:03:55;;;;;;;10.55;4.53;;;;;;;;;;5103664;28;20279;-66
2023/05/22 09:06:22;;;;;;;8.43;4.97;;;;;;;;;;5099877;28;20083;-65
2023/05/22 09:08:48;;;;;;;7.85;5.45;;;;;;;;;;5105040;28;20263;-69
2023/05/22 09:11:14;;;;;;;8.07;5.05;;;;;;;;;;5102746;28;20136;-66
2023/05/22 09:13:40;;;;;;;9.55;5.78;;;;;;;;;;5102750;28;20502;-66
2023/05/22 09:16:08;;;;;;;10.27;5.90;;;;;;;;;;5103682;28;20039;-66
2023/05/22 09:18:36;;;;;;;10.15;6.53;;;;;;;;;;5107713;28;20120;-65
2023/05/22 09:21:02;;;;;;;10.65;7.18;;;;;;;;;;5102954;28;20554;-66
2023/05/22 09:23:29;;;;;;;12.10;6.70;;;;;;;;;;5097916;28;20122;-65
2023/05/22 09:25:57;;;;;;;13.00;6.65;;;;;;;;;;5103992;28;20066;-66
2023/05/22 09:28:23;;;;;;;11.27;7.03;;;;;;;;;;5136124;27;20086;-67
2023/05/22 09:30:50;;;;;;;9.50;7.07;;;;;;;;;;5108294;27;20415;-68
2023/05/22 09:33:16;;;;;;;11.48;6.88;;;;;;;;;;5107685;27;20432;-67
2023/05/22 09:35:44;;;;;;;11.52;7.43;;;;;;;;;;5106931;27;20115;-67
2023/05/22 09:38:10;;;;;;;13.00;6.93;;;;;;;;;;5104141;27;20066;-69
2023/05/22 09:40:39;;;;;;;9.73;6.85;;;;;;;;;;5107336;27;20039;-69
2023/05/22 09:43:11;;;;;;;12.48;6.93;;;;;;;;;;5106546;27;20096;-68
2023/05/22 09:45:38;;;;;;;13.70;7.70;;;;;;;;;;5108654;27;20478;-67
2023/05/22 09:48:05;;;;;;;13.32;7.35;;;;;;;;;;5107486;27;20139;-68
2023/05/22 09:50:32;;;;;;;11.63;7.80;;;;;;;;;;5106383;27;20055;-70
2023/05/22 09:53:02;;;;;;;12.07;8.02;;;;;;;;;;5091800;28;20143;-67
2023/05/22 09:55:28;;;;;;;10.30;7.75;;;;;;;;;;5108253;27;20112;-68
2023/05/22 09:57:55;;;;;;;13.82;8.23;;;;;;;;;;5108322;27;20555;-69
2023/05/22 10:00:22;;;;;;;14.13;8.32;;;;;;;;;;5104951;27;20132;-68
2023/05/22 10:02:51;;;;;;;14.10;8.27;;;;;;;;;;5107259;27;20318;-68
2023/05/22 10:05:21;;;;;;;10.63;8.25;;;;;;;;;;5108560;27;20044;-69
2023/05/22 10:07:50;;;;;;;11.93;8.45;;;;;;;;;;5107624;27;20050;-68
2023/05/22 10:10:19;;;;;;;13.18;8.85;;;;;;;;;;5106586;27;20444;-68
2023/05/22 10:12:52;;;;;;;13.77;8.57;;;;;;;;;;5129745;27;20069;-69
2023/05/22 10:15:19;;;;;;;11.43;9.27;;;;;;;;;;5101488;27;20404;-67
2023/05/22 10:17:45;;;;;;;14.25;9.77;;;;;;;;;;5104792;27;20044;-67
2023/05/22 10:20:12;;;;;;;13.75;9.68;;;;;;;;;;5109774;27;20036;-67
2023/05/22 10:22:38;;;;;;;12.95;8.93;;;;;;;;;;5100024;27;20460;-66
2023/05/22 10:25:05;;;;;;;17.58;9.45;;;;;;;;;;5098177;27;20043;-67
2023/05/22 10:27:31;;;;;;;11.50;9.25;;;;;;;;;;5100982;27;20067;-67
2023/05/22 10:30:13;;;;;;;13.18;9.60;;;;;;;;;;5098427;27;20082;-67
2023/05/22 10:32:41;;;;;;;14.07;9.27;;;;;;;;;;5101052;27;20230;-67
2023/05/22 10:35:15;;;;;;;11.88;10.05;;;;;;;;;;5098523;27;20055;-69
2023/05/22 10:37:46;;;;;;;18.23;9.77;;;;;;;;;;5118099;27;20051;-67
2023/05/22 10:40:17;;;;;;;16.15;10.63;;;;;;;;;;5099425;27;20774;-67
2023/05/22 10:42:43;;;;;;;14.50;10.40;;;;;;;;;;5100563;27;20402;-68
2023/05/22 10:45:10;;;;;;;17.67;9.57;;;;;;;;;;5101022;27;20054;-66
2023/05/22 10:47:37;;;;;;;14.13;10.00;;;;;;;;;;5109344;27;20122;-66
2023/05/22 10:50:06;;;;;;;13.23;9.40;;;;;;;;;;5107800;27;20048;-67
2023/05/22 10:52:32;;;;;;;14.48;9.23;;;;;;;;;;5114024;27;20638;-66
2023/05/22 10:55:00;;;;;;;13.88;10.05;;;;;;;;;;5111643;27;20043;-69
2023/05/22 10:57:27;;;;;;;13.20;9.65;;;;;;;;;;5107016;27;20039;-69
2023/05/22 11:00:07;;;;;;;15.70;9.75;;;;;;;;;;5102926;27;20040;-68
2023/05/22 11:02:37;;;;;;;14.15;9.50;;;;;;;;;;5101860;27;20519;-68
2023/05/22 11:05:20;;;;;;;17.00;10.60;;;;;;;;;;5102405;27;20384;-75
2023/05/22 11:07:46;;;;;;;12.23;9.55;;;;;;;;;;5101300;27;20044;-70
2023/05/22 11:10:13;;;;;;;15.13;9.80;;;;;;;;;;5104687;27;20040;-69
2023/05/22 11:12:40;;;;;;;14.18;10.95;;;;;;;;;;5102754;27;20421;-70
2023/05/22 11:15:07;;;;;;;15.23;9.60;;;;;;;;;;5101560;27;20088;-70
2023/05/22 11:17:34;;;;;;;11.88;8.60;;;;;;;;;;5103761;27;20050;-69
2023/05/22 11:20:05;;;;;;;11.35;8.80;;;;;;;;;;5113524;27;20051;-70
2023/05/22 11:22:31;;;;;;;11.25;8.65;;;;;;;;;;5110483;27;20183;-69
2023/05/22 11:24:57;;;;;;;11.13;8.85;;;;;;;;;;5104490;27;20039;-70
2023/05/22 11:27:23;;;;;;;13.90;8.63;;;;;;;;;;5104764;27;20463;-70
2023/05/22 11:29:50;;;;;;;16.10;8.93;;;;;;;;;;5100269;27;20505;-70
2023/05/22 11:32:19;;;;;;;12.60;9.15;;;;;;;;;;5100444;27;20046;-70
2023/05/22 11:34:49;;;;;;;14.77;8.93;;;;;;;;;;5102386;27;20039;-70
2023/05/22 11:37:17;;;;;;;13.05;9.15;;;;;;;;;;5106096;27;20070;-70
2023/05/22 11:39:50;;;;;;;13.20;9.38;;;;;;;;;;5102717;27;20046;-70
2023/05/22 11:42:17;;;;;;;14.88;9.77;;;;;;;;;;5100374;27;20509;-70
2023/05/22 11:44:43;;;;;;;17.58;9.55;;;;;;;;;;5104135;27;20036;-70
2023/05/22 11:47:10;;;;;;;15.43;9.40;;;;;;;;;;5105785;27;20510;-70
2023/05/22 11:49:36;;;;;;;13.68;9.40;;;;;;;;;;5101119;27;20039;-70
2023/05/22 11:52:02;;;;;;;16.13;9.90;;;;;;;;;;5099412;27;20108;-70
2023/05/22 11:54:31;;;;;;;14.93;10.07;;;;;;;;;;5100069;27;20104;-70
2023/05/22 11:56:57;;;;;;;13.80;9.63;;;;;;;;;;5103316;27;20048;-76
2023/05/22 11:59:24;;;;;;;14.88;10.60;;;;;;;;;;5102201;27;20043;-71
2023/05/22 12:01:50;;;;;;;11.85;9.20;;;;;;;;;;5101808;27;20560;-73
2023/05/22 12:04:17;;;;;;;16.55;9.65;;;;;;;;;;5136995;27;20043;-70
2023/05/22 12:06:43;;;;;;;16.35;9.57;;;;;;;;;;5098921;27;20465;-70
2023/05/22 12:09:10;;;;;;;13.93;9.65;;;;;;;;;;5101201;27;20502;-70
2023/05/22 12:11:36;;;;;;;14.38;9.90;;;;;;;;;;5096362;28;20112;-69
2023/05/22 12:14:02;;;;;;;15.98;9.65;;;;;;;;;;5144057;27;20453;-70
2023/05/22 12:16:33;;;;;;;16.67;10.63;;;;;;;;;;5104673;27;20047;-69
2023/05/22 12:18:59;;;;;;;14.10;8.90;;;;;;;;;;5097933;27;20439;-70
2023/05/22 12:21:26;;;;;;;16.83;10.43;;;;;;;;;;5096626;27;20040;-69
2023/05/22 12:23:54;;;;;;;13.57;9.30;;;;;;;;;;5098300;28;20047;-69
2023/05/22 12:26:20;;;;;;;17.27;10.38;;;;;;;;;;5099065;27;20044;-69
2023/05/22 12:28:47;;;;;;;12.98;9.95;;;;;;;;;;5101711;27;20044;-68
2023/05/22 12:31:20;;;;;;;13.73;9.98;;;;;;;;;;5099913;28;20067;-69
2023/05/22 12:33:46;;;;;;;16.65;10.25;;;;;;;;;;5105635;28;20047;-70
2023/05/22 12:36:12;;;;;;;15.70;9.90;;;;;;;;;;5110724;28;20129;-68
2023/05/22 12:38:39;;;;;;;18.85;10.43;;;;;;;;;;5108824;28;20048;-68
2023/05/22 12:41:05;;;;;;;15.68;10.15;;;;;;;;;;5106574;28;20039;-69
2023/05/22 12:43:31;;;;;;;13.98;9.75;;;;;;;;;;5106133;28;20491;-69
2023/05/22 12:45:57;;;;;;;13.77;9.30;;;;;;;;;;5103024;28;20043;-69
2023/05/22 12:48:23;;;;;;;15.15;9.82;;;;;;;;;;5099606;27;20051;-69
2023/05/22 12:50:50;;;;;;;15.30;9.52;;;;;;;;;;5103616;28;20051;-69
2023/05/22 12:53:16;;;;;;;16.40;9.52;;;;;;;;;;5100949;28;20067;-69
2023/05/22 12:55:42;;;;;;;14.98;10.18;;;;;;;;;;5133827;27;20055;-69
2023/05/22 12:58:08;;;;;;;16.00;9.57;;;;;;;;;;5101769;28;20051;-72
2023/05/22 13:00:34;;;;;;;15.93;9.98;;;;;;;;;;5104381;28;20062;-72
2023/05/22 13:03:01;;;;;;;15.65;10.38;;;;;;;;;;5109520;27;20051;-72
2023/05/22 13:05:27;;;;;;;16.33;10.63;;;;;;;;;;5110602;27;20036;-72
2023/05/22 13:07:54;;;;;;;15.07;10.48;;;;;;;;;;5104433;27;20047;-72
2023/05/22 13:10:20;;;;;;;13.88;9.60;;;;;;;;;;5106243;27;20059;-72
2023/05/22 13:12:49;;;;;;;13.32;9.52;;;;;;;;;;5112747;27;20459;-72
2023/05/22 13:15:15;;;;;;;14.30;9.95;;;;;;;;;;5105363;27;20493;-72
2023/05/22 13:17:42;;;;;;;13.88;8.52;;;;;;;;;;5107320;27;20047;-72
2023/05/22 13:20:08;;;;;;;11.57;8.70;;;;;;;;;;5104586;27;20045;-72
2023/05/22 13:22:34;;;;;;;16.38;9.55;;;;;;;;;;5104626;27;20367;-72
2023/05/22 13:25:00;;;;;;;13.43;9.70;;;;;;;;;;5109903;27;20028;-72
2023/05/22 13:27:27;;;;;;;14.68;9.65;;;;;;;;;;5110617;27;20047;-72
2023/05/22 13:29:53;;;;;;;12.68;9.68;;;;;;;;;;5111405;27;20256;-72
2023/05/22 13:32:19;;;;;;;12.88;9.80;;;;;;;;;;5109866;27;20035;-72
2023/05/22 13:34:46;;;;;;;15.23;9.95;;;;;;;;;;5109270;27;20096;-72
2023/05/22 13:37:12;;;;;;;11.88;9.18;;;;;;;;;;5105426;27;20067;-72
2023/05/22 13:39:38;;;;;;;13.25;9.52;;;;;;;;;;5104640;27;20047;-73
2023/05/22 13:42:05;;;;;;;12.60;9.45;;;;;;;;;;5104898;27;20113;-72
2023/05/22 13:44:31;;;;;;;13.30;9.30;;;;;;;;;;5105433;27;20035;-72
2023/05/22 13:46:58;;;;;;;15.25;10.00;;;;;;;;;;5106435;27;20134;-72
2023/05/22 13:49:26;;;;;;;15.15;9.45;;;;;;;;;;5104874;27;20082;-72
2023/05/22 13:51:52;;;;;;;15.23;9.13;;;;;;;;;;5105935;27;20439;-72
2023/05/22 13:54:19;;;;;;;13.07;8.63;;;;;;;;;;5105270;27;20051;-72
2023/05/22 13:56:45;;;;;;;15.15;9.43;;;;;;;;;;5139466;27;20048;-72
2023/05/22 13:59:11;;;;;;;15.65;10.27;;;;;;;;;;5108941;27;20131;-73
2023/05/22 14:01:37;;;;;;;17.02;9.85;;;;;;;;;;5105246;27;20040;-73
2023/05/22 14:04:03;;;;;;;16.17;9.40;;;;;;;;;;5106090;27;20088;-74
2023/05/22 14:06:29;;;;;;;15.10;9.82;;;;;;;;;;5107504;27;20135;-73
2023/05/22 14:08:56;;;;;;;12.40;8.65;;;;;;;;;;5106901;27;20054;-74
2023/05/22 14:11:22;;;;;;;15.48;9.02;;;;;;;;;;5139336;27;20368;-74
2023/05/22 14:13:48;;;;;;;15.63;10.10;;;;;;;;;;5106970;27;20039;-74
2023/05/22 14:16:15;;;;;;;14.20;9.00;;;;;;;;;;5106705;27;20039;-74
2023/05/22 14:18:41;;;;;;;13.35;9.88;;;;;;;;;;5105715;27;20147;-74
2023/05/22 14:21:07;;;;;;;14.05;8.88;;;;;;;;;;5107100;27;20124;-74
2023/05/22 14:23:33;;;;;;;12.98;9.25;;;;;;;;;;5109200;27;20443;-74